createdAt,value
2018-07-09T00:00:48.296Z,65.50
2018-07-09T00:03:17.413Z,66.60
2018-07-09T00:05:47.205Z,65.80
2018-07-09T00:08:20.854Z,65.90
2018-07-09T00:10:58.161Z,66.10
2018-07-09T00:13:28.224Z,65.90
2018-07-09T00:18:26.669Z,67.00
2018-07-09T00:20:55.759Z,67.20
2018-07-09T00:23:24.203Z,67.70
2018-07-09T00:25:53.469Z,67.90
2018-07-09T00:28:22.385Z,68.70
2018-07-09T00:30:50.960Z,68.70
2018-07-09T00:33:20.403Z,69.30
2018-07-09T00:35:49.446Z,69.60
2018-07-09T00:38:18.468Z,69.40
2018-07-09T00:40:47.065Z,70.00
2018-07-09T00:43:15.536Z,69.90
2018-07-09T00:45:44.481Z,70.30
2018-07-09T00:48:12.895Z,70.00
2018-07-09T00:50:41.428Z,70.60
2018-07-09T00:53:09.982Z,69.90
2018-07-09T00:55:38.878Z,69.20
2018-07-09T00:58:07.720Z,70.00
2018-07-09T01:00:36.295Z,69.10
2018-07-09T01:03:04.862Z,69.20
2018-07-09T01:05:33.330Z,69.10
2018-07-09T01:08:02.097Z,68.70
2018-07-09T01:10:30.566Z,69.00
2018-07-09T01:12:59.316Z,69.60
2018-07-09T01:15:27.907Z,69.40
2018-07-09T01:17:57.504Z,69.60
2018-07-09T01:20:28.015Z,69.60
2018-07-09T01:22:57.361Z,70.50
2018-07-09T01:25:26.600Z,70.50
2018-07-09T01:27:55.933Z,70.20
2018-07-09T01:30:25.709Z,70.60
2018-07-09T01:32:54.290Z,70.20
2018-07-09T01:35:22.743Z,70.10
2018-07-09T01:37:51.221Z,70.00
2018-07-09T01:40:19.845Z,70.00
2018-07-09T01:42:48.362Z,69.90
2018-07-09T01:45:16.944Z,69.70
2018-07-09T01:47:45.369Z,70.70
2018-07-09T01:50:14.306Z,71.00
2018-07-09T01:52:42.875Z,71.00
2018-07-09T01:57:39.567Z,70.40
2018-07-09T02:00:08.160Z,70.90
2018-07-09T02:02:36.631Z,70.40
2018-07-09T02:05:05.180Z,70.90
2018-07-09T02:07:33.656Z,70.30
2018-07-09T02:10:02.240Z,71.00
2018-07-09T02:12:30.762Z,71.30
2018-07-09T02:14:59.340Z,70.50
2018-07-09T02:17:27.813Z,71.50
2018-07-09T02:19:56.905Z,71.40
2018-07-09T02:22:26.363Z,70.70
2018-07-09T02:24:54.946Z,69.60
2018-07-09T02:27:23.371Z,68.90
2018-07-09T02:29:51.862Z,68.50
2018-07-09T02:32:20.331Z,68.80
2018-07-09T02:34:48.948Z,68.90
2018-07-09T02:37:17.487Z,68.80
2018-07-09T02:39:46.067Z,69.00
2018-07-09T02:42:14.532Z,69.40
2018-07-09T02:44:43.172Z,69.50
2018-07-09T02:47:12.113Z,69.60
2018-07-09T02:49:40.742Z,70.00
2018-07-09T02:52:09.193Z,69.90
2018-07-09T02:54:37.720Z,69.90
2018-07-09T02:57:06.197Z,68.90
2018-07-09T02:59:35.174Z,69.00
2018-07-09T03:02:03.712Z,69.30
2018-07-09T03:04:32.268Z,69.40
2018-07-09T03:07:00.851Z,69.50
2018-07-09T03:09:29.433Z,69.40
2018-07-09T03:11:57.935Z,69.80
2018-07-09T03:14:26.847Z,70.70
2018-07-09T03:16:55.921Z,69.90
2018-07-09T03:19:24.479Z,70.10
2018-07-09T03:21:53.044Z,69.80
2018-07-09T03:24:21.577Z,70.80
2018-07-09T03:26:50.027Z,69.30
2018-07-09T03:29:18.550Z,68.60
2018-07-09T03:31:46.992Z,68.80
2018-07-09T03:34:15.653Z,69.00
2018-07-09T03:36:44.104Z,68.90
2018-07-09T03:39:12.685Z,68.70
2018-07-09T03:41:41.251Z,68.70
2018-07-09T03:44:10.196Z,68.80
2018-07-09T03:46:38.604Z,68.60
2018-07-09T03:49:07.504Z,68.80
2018-07-09T03:51:35.952Z,68.60
2018-07-09T03:54:04.644Z,68.70
2018-07-09T03:56:33.098Z,68.70
2018-07-09T03:59:02.009Z,68.80
2018-07-09T04:01:30.420Z,69.10
2018-07-09T04:03:59.660Z,69.10
2018-07-09T04:06:28.187Z,69.90
2018-07-09T04:08:57.553Z,70.40
2018-07-09T04:11:26.600Z,70.40
2018-07-09T04:13:55.945Z,70.90
2018-07-09T04:16:24.493Z,71.10
2018-07-09T04:18:52.983Z,71.30
2018-07-09T04:21:21.464Z,72.20
2018-07-09T04:23:50.053Z,72.00
2018-07-09T04:26:18.588Z,71.70
2018-07-09T04:28:47.327Z,71.80
2018-07-09T04:31:15.763Z,71.80
2018-07-09T04:33:44.238Z,71.60
2018-07-09T04:36:12.804Z,71.80
2018-07-09T04:38:41.367Z,72.60
2018-07-09T04:42:12.815Z,72.60
2018-07-09T04:44:41.355Z,72.10
2018-07-09T04:47:09.813Z,74.70
2018-07-09T04:49:38.357Z,74.60
2018-07-09T04:52:06.778Z,75.20
2018-07-09T04:54:35.289Z,74.20
2018-07-09T04:57:03.798Z,74.00
2018-07-09T04:59:32.366Z,74.70
2018-07-09T05:02:00.897Z,74.50
2018-07-09T05:04:29.347Z,74.30
2018-07-09T05:06:59.016Z,74.10
2018-07-09T05:09:27.625Z,73.50
2018-07-09T05:11:56.967Z,74.00
2018-07-09T05:14:26.215Z,73.50
2018-07-09T05:16:55.006Z,74.00
2018-07-09T05:19:23.560Z,73.20
2018-07-09T05:21:52.410Z,73.80
2018-07-09T05:24:21.014Z,73.90
2018-07-09T05:26:49.943Z,73.40
2018-07-09T05:29:18.497Z,72.90
2018-07-09T05:31:46.975Z,73.00
2018-07-09T05:34:15.523Z,73.10
2018-07-09T05:36:44.047Z,72.90
2018-07-09T05:39:12.657Z,72.60
2018-07-09T05:41:41.150Z,72.50
2018-07-09T05:44:09.760Z,72.50
2018-07-09T05:46:38.401Z,72.40
2018-07-09T05:49:06.991Z,72.40
2018-07-09T05:51:35.445Z,71.90
2018-07-09T05:54:04.369Z,71.70
2018-07-09T05:56:32.847Z,71.90
2018-07-09T05:59:01.558Z,72.30
2018-07-09T06:01:30.301Z,72.90
2018-07-09T06:03:58.946Z,71.70
2018-07-09T06:06:28.151Z,72.40
2018-07-09T06:08:56.991Z,72.30
2018-07-09T06:11:26.185Z,71.60
2018-07-09T06:13:56.023Z,71.90
2018-07-09T06:16:24.538Z,73.00
2018-07-09T06:18:53.150Z,72.30
2018-07-09T06:21:22.043Z,71.60
2018-07-09T06:23:51.116Z,71.90
2018-07-09T06:26:19.619Z,73.60
2018-07-09T06:28:48.136Z,73.70
2018-07-09T06:31:17.035Z,73.30
2018-07-09T06:33:45.478Z,72.40
2018-07-09T06:36:13.997Z,72.60
2018-07-09T06:38:42.568Z,72.20
2018-07-09T06:41:11.049Z,71.90
2018-07-09T06:43:39.573Z,70.70
2018-07-09T06:46:08.394Z,70.80
2018-07-09T06:48:37.356Z,70.60
2018-07-09T06:51:06.954Z,70.40
2018-07-09T06:53:35.850Z,71.30
2018-07-09T06:56:04.386Z,72.10
2018-07-09T06:58:32.961Z,71.80
2018-07-09T07:01:01.871Z,71.10
2018-07-09T07:03:30.499Z,71.00
2018-07-09T07:05:59.732Z,70.70
2018-07-09T07:08:28.234Z,71.00
2018-07-09T07:13:26.709Z,72.30
2018-07-09T07:15:56.007Z,71.30
2018-07-09T07:18:24.627Z,71.40
2018-07-09T07:20:53.102Z,71.70
2018-07-09T07:23:21.792Z,71.80
2018-07-09T07:25:50.349Z,71.90
2018-07-09T07:28:19.395Z,71.80
2018-07-09T07:30:47.881Z,71.40
2018-07-09T07:33:16.617Z,70.90
2018-07-09T07:35:45.664Z,70.80
2018-07-09T07:38:14.520Z,70.80
2018-07-09T07:40:42.957Z,71.90
2018-07-09T07:43:11.462Z,72.20
2018-07-09T07:45:40.068Z,71.50
2018-07-09T07:48:08.714Z,71.00
2018-07-09T07:53:06.183Z,71.40
2018-07-09T07:55:34.759Z,71.60
2018-07-09T07:58:03.665Z,72.40
2018-07-09T08:00:32.171Z,71.20
2018-07-09T08:03:00.674Z,71.10
2018-07-09T08:05:29.457Z,72.20
2018-07-09T08:07:59.020Z,72.70
2018-07-09T08:13:13.480Z,72.50
2018-07-09T08:15:26.112Z,73.40
2018-07-09T08:17:55.270Z,72.50
2018-07-09T08:20:23.824Z,71.80
2018-07-09T08:22:52.292Z,71.90
2018-07-09T08:25:20.807Z,71.80
2018-07-09T08:27:49.457Z,71.60
2018-07-09T08:30:18.523Z,71.30
2018-07-09T08:32:47.072Z,71.00
2018-07-09T08:35:15.618Z,70.40
2018-07-09T08:37:44.228Z,71.00
2018-07-09T08:40:13.090Z,71.30
2018-07-09T08:42:41.724Z,72.00
2018-07-09T08:45:10.126Z,72.10
2018-07-09T08:47:38.711Z,72.00
2018-07-09T08:50:07.461Z,71.10
2018-07-09T08:52:36.100Z,71.20
2018-07-09T08:55:04.631Z,73.00
2018-07-09T08:57:33.251Z,71.00
2018-07-09T09:00:01.769Z,70.90
2018-07-09T09:02:30.274Z,71.30
2018-07-09T09:07:28.112Z,69.40
2018-07-09T09:09:57.573Z,69.70
2018-07-09T09:12:27.021Z,70.00
2018-07-09T09:14:56.257Z,70.50
2018-07-09T09:17:24.843Z,69.80
2018-07-09T09:19:53.968Z,67.90
2018-07-09T09:22:22.597Z,67.80
2018-07-09T09:24:51.069Z,68.40
2018-07-09T09:27:19.575Z,68.70
2018-07-09T09:29:48.125Z,65.30
2018-07-09T09:32:16.648Z,63.70
2018-07-09T09:34:45.883Z,65.80
2018-07-09T09:37:14.753Z,64.40
2018-07-09T09:39:43.606Z,65.40
2018-07-09T09:42:12.200Z,65.10
2018-07-09T09:44:40.655Z,66.60
2018-07-09T09:47:10.210Z,67.60
2018-07-09T09:49:38.703Z,68.00
2018-07-09T09:52:07.164Z,68.70
2018-07-09T09:54:35.696Z,68.30
2018-07-09T09:57:04.165Z,69.60
2018-07-09T09:59:32.616Z,68.30
2018-07-09T10:02:02.542Z,69.30
2018-07-09T10:04:31.481Z,67.50
2018-07-09T10:07:00.066Z,67.80
2018-07-09T10:09:28.701Z,65.50
2018-07-09T10:11:58.307Z,65.10
2018-07-09T10:14:27.327Z,65.50
2018-07-09T10:16:56.191Z,67.70
2018-07-09T10:19:24.797Z,68.80
2018-07-09T10:21:53.343Z,68.80
2018-07-09T10:24:21.805Z,69.10
2018-07-09T10:26:50.333Z,65.90
2018-07-09T10:29:18.776Z,64.00
2018-07-09T10:31:47.562Z,65.20
2018-07-09T10:34:16.015Z,66.70
2018-07-09T10:36:44.559Z,65.30
2018-07-09T10:39:13.165Z,64.50
2018-07-09T10:41:42.124Z,63.20
2018-07-09T10:44:10.619Z,65.00
2018-07-09T10:46:39.183Z,66.10
2018-07-09T10:49:07.669Z,65.00
2018-07-09T10:51:36.890Z,62.20
2018-07-09T10:54:05.484Z,62.00
2018-07-09T10:56:34.048Z,60.30
2018-07-09T11:01:31.119Z,59.30
2018-07-09T11:03:59.683Z,61.80
2018-07-09T11:06:28.346Z,62.60
2018-07-09T11:08:57.355Z,63.80
2018-07-09T11:11:26.270Z,62.60
2018-07-09T11:16:23.166Z,61.40
2018-07-09T11:18:51.705Z,62.30
2018-07-09T11:21:20.286Z,59.70
2018-07-09T11:23:48.850Z,62.60
2018-07-09T11:26:17.257Z,60.00
2018-07-09T11:28:45.632Z,61.60
2018-07-09T11:31:14.282Z,62.50
2018-07-09T11:33:43.168Z,63.30
2018-07-09T11:36:11.807Z,61.80
2018-07-09T11:38:40.253Z,61.50
2018-07-09T11:41:09.270Z,62.80
2018-07-09T11:43:37.712Z,62.10
2018-07-09T11:46:06.200Z,62.20
2018-07-09T11:48:34.692Z,61.90
2018-07-09T11:51:04.023Z,61.10
2018-07-09T11:53:32.456Z,58.60
2018-07-09T11:56:01.147Z,59.60
2018-07-09T11:58:29.655Z,58.20
2018-07-09T12:00:58.456Z,59.80
2018-07-09T12:03:27.551Z,60.30
2018-07-09T12:05:56.295Z,60.30
2018-07-09T12:10:53.410Z,57.70
2018-07-09T12:13:21.952Z,57.90
2018-07-09T12:15:50.524Z,57.40
2018-07-09T12:18:19.048Z,59.20
2018-07-09T12:20:47.605Z,59.10
2018-07-09T12:23:16.059Z,58.00
2018-07-09T12:25:44.595Z,57.10
2018-07-09T12:28:13.454Z,56.50
2018-07-09T12:30:43.338Z,58.40
2018-07-09T12:33:11.864Z,60.00
2018-07-09T12:35:40.384Z,60.70
2018-07-09T12:38:08.905Z,62.60
2018-07-09T12:40:37.873Z,63.30
2018-07-09T12:43:06.358Z,60.50
2018-07-09T12:48:03.101Z,61.10
2018-07-09T12:50:32.643Z,58.30
2018-07-09T12:53:01.123Z,56.40
2018-07-09T12:55:29.698Z,59.40
2018-07-09T12:57:59.269Z,58.20
2018-07-09T13:00:29.167Z,59.00
2018-07-09T13:02:58.740Z,58.80
2018-07-09T13:05:27.272Z,61.70
2018-07-09T13:07:55.732Z,62.30
2018-07-09T13:10:25.343Z,60.50
2018-07-09T13:12:53.801Z,61.70
2018-07-09T13:15:22.769Z,59.80
2018-07-09T13:17:51.848Z,60.00
2018-07-09T13:20:20.790Z,60.80
2018-07-09T13:22:49.440Z,61.90
2018-07-09T13:25:17.977Z,61.60
2018-07-09T13:27:46.469Z,57.80
2018-07-09T13:30:15.035Z,59.00
2018-07-09T13:32:43.590Z,58.20
2018-07-09T13:35:12.070Z,56.90
2018-07-09T13:37:40.936Z,55.00
2018-07-09T13:40:09.466Z,57.00
2018-07-09T13:42:37.999Z,56.80
2018-07-09T13:45:06.677Z,56.70
2018-07-09T13:47:35.238Z,57.70
2018-07-09T13:50:03.973Z,58.80
2018-07-09T13:52:32.877Z,58.60
2018-07-09T13:55:01.535Z,58.80
2018-07-09T13:57:30.124Z,58.30
2018-07-09T13:59:58.988Z,58.20
2018-07-09T14:02:27.812Z,58.80
2018-07-09T14:04:57.039Z,57.50
2018-07-09T14:07:25.860Z,57.50
2018-07-09T14:09:55.371Z,57.90
2018-07-09T14:12:26.712Z,58.30
2018-07-09T14:14:56.486Z,57.10
2018-07-09T14:17:25.419Z,57.90
2018-07-09T14:20:57.892Z,57.60
2018-07-09T14:23:26.712Z,57.50
2018-07-09T14:25:55.458Z,59.60
2018-07-09T14:28:23.980Z,61.20
2018-07-09T14:30:52.710Z,59.90
2018-07-09T14:33:21.179Z,59.20
2018-07-09T14:35:49.711Z,59.40
2018-07-09T14:38:18.205Z,60.10
2018-07-09T14:40:47.092Z,58.90
2018-07-09T14:43:15.596Z,58.20
2018-07-09T14:48:12.238Z,62.50
2018-07-09T14:50:40.778Z,59.00
2018-07-09T14:53:09.165Z,58.10
2018-07-09T14:55:37.734Z,59.90
2018-07-09T14:58:06.164Z,59.70
2018-07-09T15:00:34.838Z,59.30
2018-07-09T15:03:03.412Z,59.70
2018-07-09T15:05:31.992Z,58.80
2018-07-09T15:08:00.725Z,58.40
2018-07-09T15:10:29.290Z,63.40
2018-07-09T15:12:57.726Z,62.90
2018-07-09T15:15:26.263Z,64.10
2018-07-09T15:17:55.447Z,62.40
2018-07-09T15:20:25.440Z,65.70
2018-07-09T15:22:54.608Z,67.70
2018-07-09T15:25:23.550Z,68.30
2018-07-09T15:27:52.076Z,66.30
2018-07-09T15:30:20.556Z,66.40
2018-07-09T15:32:49.074Z,64.40
2018-07-09T15:35:18.028Z,64.40
2018-07-09T15:37:46.508Z,62.60
2018-07-09T15:40:15.328Z,63.40
2018-07-09T15:42:43.832Z,62.40
2018-07-09T15:45:12.487Z,59.30
2018-07-09T15:47:40.982Z,60.00
2018-07-09T15:50:10.342Z,60.50
2018-07-09T15:52:38.931Z,59.90
2018-07-09T15:55:07.480Z,58.20
2018-07-09T15:57:35.982Z,60.90
2018-07-09T16:00:04.995Z,59.90
2018-07-09T16:02:33.592Z,58.40
2018-07-09T16:05:02.197Z,57.60
2018-07-09T16:07:30.740Z,58.50
2018-07-09T16:09:59.253Z,58.40
2018-07-09T16:12:27.696Z,60.00
2018-07-09T16:14:56.262Z,58.60
2018-07-09T16:17:25.086Z,59.20
2018-07-09T16:19:54.106Z,58.50
2018-07-09T16:22:22.793Z,58.90
2018-07-09T16:24:51.341Z,59.00
2018-07-09T16:27:20.155Z,57.80
2018-07-09T16:29:48.741Z,60.00
2018-07-09T16:32:17.317Z,60.70
2018-07-09T16:34:45.731Z,59.90
2018-07-09T16:37:14.345Z,59.50
2018-07-09T16:42:11.606Z,59.90
2018-07-09T16:44:40.104Z,61.00
2018-07-09T16:47:08.558Z,58.80
2018-07-09T16:49:37.031Z,63.00
2018-07-09T16:52:05.821Z,61.10
2018-07-09T16:54:34.344Z,61.60
2018-07-09T16:57:02.860Z,61.60
2018-07-09T16:59:31.376Z,61.20
2018-07-09T17:01:59.993Z,60.60
2018-07-09T17:04:28.851Z,63.20
2018-07-09T17:06:57.460Z,60.00
2018-07-09T17:09:25.944Z,60.20
2018-07-09T17:11:54.753Z,59.10
2018-07-09T17:14:24.446Z,57.90
2018-07-09T17:16:53.565Z,55.80
2018-07-09T17:19:22.046Z,58.50
2018-07-09T17:21:50.548Z,58.90
2018-07-09T17:24:19.068Z,59.10
2018-07-09T17:26:47.645Z,59.10
2018-07-09T17:29:16.305Z,56.50
2018-07-09T17:31:46.423Z,56.50
2018-07-09T17:34:14.944Z,58.20
2018-07-09T17:36:43.579Z,58.70
2018-07-09T17:39:12.098Z,59.20
2018-07-09T17:41:40.688Z,57.20
2018-07-09T17:44:09.270Z,58.30
2018-07-09T17:46:37.843Z,58.90
2018-07-09T17:49:06.301Z,59.10
2018-07-09T17:54:03.025Z,59.00
2018-07-09T17:56:31.516Z,56.30
2018-07-09T17:58:59.946Z,57.80
2018-07-09T18:01:28.524Z,57.60
2018-07-09T18:03:57.094Z,58.40
2018-07-09T18:06:26.348Z,57.30
2018-07-09T18:08:55.239Z,57.20
2018-07-09T18:11:24.074Z,59.20
2018-07-09T18:13:52.998Z,59.00
2018-07-09T18:16:21.678Z,59.90
2018-07-09T18:18:50.192Z,59.90
2018-07-09T18:21:18.928Z,60.90
2018-07-09T18:23:47.548Z,61.40
2018-07-09T18:26:16.003Z,62.40
2018-07-09T18:28:44.510Z,63.80
2018-07-09T18:31:13.075Z,64.30
2018-07-09T18:33:41.521Z,64.40
2018-07-09T18:36:09.951Z,64.10
2018-07-09T18:38:38.511Z,64.10
2018-07-09T18:41:07.189Z,63.40
2018-07-09T18:43:35.992Z,64.00
2018-07-09T18:46:05.266Z,64.10
2018-07-09T18:48:33.747Z,63.70
2018-07-09T18:51:02.820Z,63.20
2018-07-09T18:53:31.225Z,65.00
2018-07-09T18:55:59.713Z,64.90
2018-07-09T18:58:28.382Z,64.90
2018-07-09T19:00:58.084Z,66.00
2018-07-09T19:03:26.573Z,65.20
2018-07-09T19:07:08.922Z,65.40
2018-07-09T19:09:38.037Z,65.20
2018-07-09T19:12:07.643Z,64.40
2018-07-09T19:14:39.299Z,65.30
2018-07-09T19:18:29.009Z,65.80
2018-07-09T19:21:36.095Z,65.50
2018-07-09T19:24:04.567Z,64.40
2018-07-09T19:26:32.166Z,65.60
2018-07-09T19:28:59.663Z,65.00
2018-07-09T19:31:26.996Z,65.70
2018-07-09T19:33:54.693Z,63.20
2018-07-09T19:36:22.226Z,64.30
2018-07-09T19:38:49.735Z,64.80
2018-07-09T19:41:17.054Z,65.00
2018-07-09T19:43:44.380Z,64.10
2018-07-09T19:46:11.775Z,63.80
2018-07-09T19:48:39.105Z,64.90
2018-07-09T19:51:07.505Z,65.70
2018-07-09T19:53:34.896Z,65.70
2018-07-09T19:56:02.218Z,64.50
2018-07-09T19:58:29.535Z,64.00
2018-07-09T20:00:56.960Z,64.90
2018-07-09T20:03:25.146Z,63.80
2018-07-09T20:05:53.376Z,64.50
2018-07-09T20:08:20.743Z,65.10
2018-07-09T20:10:53.971Z,64.70
2018-07-09T20:13:26.741Z,64.50
2018-07-09T20:25:21.243Z,66.10
2018-07-09T20:27:49.094Z,64.60
2018-07-09T20:30:17.101Z,65.10
2018-07-09T20:32:44.723Z,65.10
2018-07-09T20:35:12.270Z,65.70
2018-07-09T20:37:39.624Z,64.00
2018-07-09T20:40:07.012Z,65.70
2018-07-09T20:42:34.510Z,66.20
2018-07-09T20:45:01.902Z,65.50
2018-07-09T20:47:29.254Z,65.00
2018-07-09T20:49:56.603Z,65.70
2018-07-09T20:52:23.920Z,65.30
2018-07-09T20:54:51.294Z,65.90
2018-07-09T20:57:18.642Z,66.40
2018-07-09T20:59:46.667Z,65.50
2018-07-09T21:02:14.037Z,65.60
2018-07-09T21:04:41.425Z,65.80
2018-07-09T21:07:08.961Z,65.40
2018-07-09T21:09:36.313Z,65.70
2018-07-09T21:12:05.027Z,64.10
2018-07-09T21:14:32.357Z,65.80
2018-07-09T21:16:59.751Z,64.10
2018-07-09T21:19:27.084Z,66.40
2018-07-09T21:21:54.425Z,66.30
2018-07-09T21:24:21.968Z,65.80
2018-07-09T21:29:17.191Z,65.60
2018-07-09T21:31:44.521Z,64.30
2018-07-09T21:34:11.873Z,65.10
2018-07-09T21:36:39.244Z,64.50
2018-07-09T21:39:06.620Z,64.00
2018-07-09T21:41:33.970Z,63.60
2018-07-09T21:44:01.314Z,63.30
2018-07-09T21:46:28.677Z,63.10
2018-07-09T21:48:56.048Z,63.90
2018-07-09T21:51:23.392Z,63.50
2018-07-09T21:53:50.750Z,62.90
2018-07-09T21:56:18.119Z,63.70
2018-07-09T21:58:45.489Z,63.00
2018-07-09T22:01:12.862Z,64.00
2018-07-09T22:03:40.383Z,63.40
2018-07-09T22:06:07.709Z,64.10
2018-07-09T22:08:35.069Z,64.30
2018-07-09T22:11:02.411Z,64.00
2018-07-09T22:13:29.759Z,64.00
2018-07-09T22:15:57.104Z,63.90
2018-07-09T22:18:24.451Z,64.70
2018-07-09T22:20:51.886Z,65.20
2018-07-09T22:23:19.229Z,64.40
2018-07-09T22:25:47.455Z,65.00
2018-07-09T22:28:14.815Z,64.00
2018-07-09T22:30:44.765Z,64.00
2018-07-09T22:33:13.207Z,63.40
2018-07-09T22:35:41.829Z,63.60
2018-07-09T22:38:10.304Z,64.10
2018-07-09T22:40:38.872Z,63.70
2018-07-09T22:43:18.607Z,64.40
2018-07-09T22:45:47.515Z,64.80
2018-07-09T22:48:16.379Z,65.50
2018-07-09T22:50:44.833Z,66.10
2018-07-09T22:53:13.417Z,66.30
2018-07-09T22:55:53.185Z,66.30
2018-07-09T22:58:22.005Z,66.80
2018-07-09T23:00:51.731Z,66.60
2018-07-09T23:03:20.249Z,65.40
2018-07-09T23:05:49.004Z,64.50
2018-07-09T23:08:18.139Z,65.60
2018-07-09T23:14:04.016Z,65.80
2018-07-09T23:16:47.316Z,66.30
2018-07-09T23:19:28.411Z,65.70
2018-07-09T23:22:11.971Z,65.90
2018-07-09T23:24:39.312Z,65.40
2018-07-09T23:27:06.677Z,65.10
2018-07-09T23:29:34.068Z,65.20
2018-07-09T23:32:01.476Z,65.70
2018-07-09T23:34:28.824Z,65.20
2018-07-09T23:36:56.201Z,66.00
2018-07-09T23:39:23.565Z,65.70
2018-07-09T23:41:50.963Z,65.90
2018-07-09T23:44:18.338Z,66.50
2018-07-09T23:46:45.677Z,67.20
2018-07-09T23:49:13.025Z,66.90
2018-07-09T23:51:40.384Z,67.20
2018-07-09T23:54:07.758Z,67.30
2018-07-09T23:58:53.868Z,67.10
